createdAt,value
2023-04-07T00:01:02.271Z,577.95
2023-04-07T00:04:05.947Z,297.45
2023-04-07T00:07:10.491Z,340.83
2023-04-07T00:10:15.524Z,436.90
2023-04-07T00:13:18.749Z,445.38
2023-04-07T00:16:22.010Z,311.52
2023-04-07T00:19:25.300Z,428.20
2023-04-07T00:22:28.480Z,365.73
2023-04-07T00:25:33.399Z,479.90
2023-04-07T00:28:37.020Z,327.88
2023-04-07T00:31:40.476Z,616.38
2023-04-07T00:34:44.092Z,541.15
2023-04-07T00:37:47.360Z,667.03
2023-04-07T00:40:52.157Z,422.80
2023-04-07T00:43:55.575Z,323.15
2023-04-07T00:46:59.072Z,675.92
2023-04-07T00:50:04.554Z,349.63
2023-04-07T00:53:09.023Z,568.22
2023-04-07T00:56:13.812Z,360.73
2023-04-07T00:59:17.315Z,659.97
2023-04-07T01:02:28.452Z,570.60
2023-04-07T01:05:40.432Z,465.83
2023-04-07T01:08:52.842Z,341.20
2023-04-07T01:12:08.895Z,498.42
2023-04-07T01:15:14.017Z,723.78
2023-04-07T01:18:25.902Z,583.67
2023-04-07T01:21:30.690Z,472.13
2023-04-07T01:25:13.966Z,656.67
2023-04-07T01:28:45.868Z,512.22
2023-04-07T01:31:51.702Z,579.33
2023-04-07T01:34:57.001Z,624.45
2023-04-07T01:38:01.922Z,646.25
2023-04-07T01:41:05.664Z,383.88
2023-04-07T01:44:10.976Z,361.95
2023-04-07T01:47:17.316Z,463.00
2023-04-07T01:50:22.278Z,632.05
2023-04-07T01:53:26.987Z,467.65
2023-04-07T01:56:30.271Z,622.65
2023-04-07T01:59:34.895Z,469.15
2023-04-07T02:02:46.621Z,637.33
2023-04-07T02:05:55.659Z,897.35
2023-04-07T02:09:14.169Z,522.05
2023-04-07T02:12:18.179Z,762.25
2023-04-07T02:15:33.160Z,785.13
2023-04-07T02:18:38.960Z,440.55
2023-04-07T02:21:43.345Z,562.47
2023-04-07T02:24:46.794Z,409.75
2023-04-07T02:27:49.963Z,353.10
2023-04-07T02:30:54.624Z,482.15
2023-04-07T02:33:59.543Z,583.75
2023-04-07T02:37:02.768Z,548.40
2023-04-07T02:40:07.278Z,343.65
2023-04-07T02:43:10.630Z,408.90
2023-04-07T02:46:15.444Z,343.80
2023-04-07T02:49:21.004Z,554.15
2023-04-07T02:52:24.186Z,573.08
2023-04-07T02:55:27.487Z,297.30
2023-04-07T02:58:30.887Z,418.98
2023-04-07T03:01:35.894Z,493.23
2023-04-07T03:04:40.537Z,403.55
2023-04-07T03:07:43.822Z,439.73
2023-04-07T03:10:47.566Z,271.55
2023-04-07T03:13:51.874Z,604.35
2023-04-07T03:16:56.446Z,250.85
2023-04-07T03:20:02.191Z,292.35
2023-04-07T03:23:06.117Z,461.75
2023-04-07T03:26:09.603Z,469.70
2023-04-07T03:29:14.868Z,513.00
2023-04-07T03:32:19.392Z,426.50
2023-04-07T03:35:25.680Z,153.13
2023-04-07T03:38:29.084Z,262.27
2023-04-07T03:41:36.702Z,196.98
2023-04-07T03:44:41.572Z,316.60
2023-04-07T03:47:44.798Z,420.08
2023-04-07T03:50:50.541Z,204.32
2023-04-07T03:53:55.702Z,242.95
2023-04-07T03:57:07.817Z,244.73
2023-04-07T04:00:17.702Z,133.20
2023-04-07T04:03:29.069Z,302.33
2023-04-07T04:06:50.395Z,173.05
2023-04-07T04:10:12.645Z,558.38
2023-04-07T04:13:19.863Z,124.85
2023-04-07T04:16:24.052Z,152.18
2023-04-07T04:19:29.719Z,104.45
2023-04-07T04:22:36.860Z,100.80
2023-04-07T04:25:40.957Z,81.15
2023-04-07T04:28:47.370Z,86.97
2023-04-07T04:31:52.453Z,79.90
2023-04-07T04:34:57.256Z,92.57
2023-04-07T04:38:03.121Z,101.63
2023-04-07T04:41:07.445Z,119.10
2023-04-07T04:44:12.325Z,105.88
2023-04-07T04:47:18.895Z,120.32
2023-04-07T04:50:23.061Z,152.43
2023-04-07T04:53:29.145Z,145.57
2023-04-07T04:56:35.767Z,135.63
2023-04-07T04:59:40.813Z,140.27
2023-04-07T05:02:44.283Z,128.93
2023-04-07T05:05:49.434Z,125.88
2023-04-07T05:08:57.453Z,124.78
2023-04-07T05:12:05.864Z,103.30
2023-04-07T05:15:15.271Z,126.35
2023-04-07T05:18:21.584Z,132.38
2023-04-07T05:21:25.182Z,127.03
2023-04-07T05:24:31.665Z,126.18
2023-04-07T05:27:37.209Z,111.55
2023-04-07T05:30:47.063Z,114.68
2023-04-07T05:33:50.598Z,107.65
2023-04-07T05:36:54.251Z,111.95
2023-04-07T05:39:59.836Z,117.70
2023-04-07T05:43:03.585Z,111.78
2023-04-07T05:46:08.978Z,108.10
2023-04-07T05:49:20.880Z,124.25
2023-04-07T05:52:31.492Z,113.57
2023-04-07T05:55:46.022Z,119.40
2023-04-07T05:59:11.069Z,117.57
2023-04-07T06:02:16.207Z,115.50
2023-04-07T06:05:22.902Z,109.93
2023-04-07T06:08:29.494Z,102.93
2023-04-07T06:11:34.522Z,120.82
2023-04-07T06:14:37.972Z,119.18
2023-04-07T06:17:42.215Z,124.85
2023-04-07T06:20:45.650Z,113.80
2023-04-07T06:23:50.760Z,111.93
2023-04-07T06:26:56.944Z,116.30
2023-04-07T06:30:00.632Z,119.05
2023-04-07T06:33:04.092Z,127.32
2023-04-07T06:36:08.348Z,132.85
2023-04-07T06:39:12.835Z,118.35
2023-04-07T06:42:17.525Z,126.50
2023-04-07T06:45:28.415Z,122.25
2023-04-07T06:48:31.821Z,117.18
2023-04-07T06:51:35.143Z,121.35
2023-04-07T06:54:38.657Z,108.60
2023-04-07T06:57:43.493Z,100.93
2023-04-07T07:00:46.835Z,126.38
2023-04-07T07:03:50.848Z,135.75
2023-04-07T07:06:56.114Z,111.82
2023-04-07T07:09:59.501Z,114.93
2023-04-07T07:13:04.720Z,106.38
2023-04-07T07:16:08.613Z,108.35
2023-04-07T07:19:12.059Z,90.47
2023-04-07T07:22:15.768Z,85.55
2023-04-07T07:25:19.244Z,81.10
2023-04-07T07:28:23.979Z,74.18
2023-04-07T07:31:27.442Z,72.57
2023-04-07T07:34:31.325Z,77.40
2023-04-07T07:37:34.807Z,78.95
2023-04-07T07:40:38.323Z,95.35
2023-04-07T07:43:43.546Z,85.22
2023-04-07T07:46:47.765Z,78.25
2023-04-07T07:49:52.236Z,60.58
2023-04-07T07:52:57.237Z,54.75
2023-04-07T07:56:01.426Z,69.97
2023-04-07T07:59:07.433Z,48.88
2023-04-07T08:02:11.568Z,38.35
2023-04-07T08:05:15.345Z,31.45
2023-04-07T08:08:19.222Z,30.83
2023-04-07T08:11:23.196Z,25.90
2023-04-07T08:14:28.162Z,31.45
2023-04-07T08:17:31.639Z,26.80
2023-04-07T08:20:36.159Z,26.95
2023-04-07T08:23:39.401Z,23.65
2023-04-07T08:26:42.725Z,28.38
2023-04-07T08:29:47.530Z,23.15
2023-04-07T08:32:51.979Z,26.08
2023-04-07T08:35:55.468Z,30.77
2023-04-07T08:38:59.006Z,29.15
2023-04-07T08:42:02.763Z,46.47
2023-04-07T08:45:09.851Z,27.60
2023-04-07T08:48:57.933Z,26.08
2023-04-07T08:52:05.093Z,25.75
2023-04-07T08:55:10.370Z,22.63
2023-04-07T08:58:15.596Z,15.90
2023-04-07T09:01:21.685Z,13.52
2023-04-07T09:04:25.540Z,18.95
2023-04-07T09:07:28.916Z,14.45
2023-04-07T09:10:32.330Z,13.90
2023-04-07T09:13:36.018Z,13.50
2023-04-07T09:16:41.134Z,11.82
2023-04-07T09:19:44.457Z,11.38
2023-04-07T09:22:47.985Z,10.98
2023-04-07T09:25:51.562Z,10.02
2023-04-07T09:28:56.670Z,9.57
2023-04-07T09:32:01.486Z,12.75
2023-04-07T09:35:05.308Z,12.18
2023-04-07T09:38:10.034Z,13.13
2023-04-07T09:41:14.880Z,12.05
2023-04-07T09:44:18.288Z,13.70
2023-04-07T09:47:29.494Z,16.35
2023-04-07T09:50:35.300Z,12.23
2023-04-07T09:53:47.677Z,11.27
2023-04-07T09:56:51.863Z,11.23
2023-04-07T09:59:56.441Z,9.75
2023-04-07T10:03:03.846Z,12.90
2023-04-07T10:06:08.461Z,11.20
2023-04-07T10:09:12.668Z,12.48
2023-04-07T10:12:16.853Z,14.52
2023-04-07T10:15:20.319Z,15.73
2023-04-07T10:18:31.707Z,12.23
2023-04-07T10:21:39.064Z,13.93
2023-04-07T10:24:53.015Z,10.43
2023-04-07T10:28:01.214Z,12.27
2023-04-07T10:31:05.248Z,14.45
2023-04-07T10:34:09.963Z,16.33
2023-04-07T10:37:17.702Z,15.07
2023-04-07T10:40:31.561Z,16.63
2023-04-07T10:43:39.945Z,18.25
2023-04-07T10:47:04.289Z,19.30
2023-04-07T10:50:20.182Z,21.42
2023-04-07T10:53:24.195Z,19.25
2023-04-07T10:56:27.924Z,17.77
2023-04-07T10:59:31.290Z,16.27
2023-04-07T11:02:35.798Z,16.45
2023-04-07T11:05:40.993Z,14.00
2023-04-07T11:08:48.214Z,16.15
2023-04-07T11:11:52.511Z,13.05
2023-04-07T11:14:56.701Z,18.88
2023-04-07T11:18:18.248Z,17.60
2023-04-07T11:21:23.299Z,12.32
2023-04-07T11:24:37.772Z,16.27
2023-04-07T11:27:41.242Z,12.30
2023-04-07T11:30:51.652Z,10.40
2023-04-07T11:33:56.299Z,12.65
2023-04-07T11:37:20.606Z,10.52
2023-04-07T11:40:34.731Z,8.25
2023-04-07T11:43:38.134Z,8.40
2023-04-07T11:46:55.454Z,10.85
2023-04-07T11:49:58.876Z,9.27
2023-04-07T11:53:03.596Z,13.80
2023-04-07T11:56:09.771Z,11.27
2023-04-07T11:59:22.852Z,12.18
2023-04-07T12:02:33.930Z,10.52
2023-04-07T12:05:44.341Z,5.97
2023-04-07T12:08:49.064Z,7.03
2023-04-07T12:11:52.565Z,7.13
2023-04-07T12:14:56.639Z,11.23
2023-04-07T12:18:00.525Z,8.75
2023-04-07T12:21:03.817Z,10.93
2023-04-07T12:24:08.550Z,11.60
2023-04-07T12:27:12.300Z,13.48
2023-04-07T12:30:15.733Z,11.68
2023-04-07T12:33:19.095Z,11.05
2023-04-07T12:36:22.872Z,12.15
2023-04-07T12:39:27.657Z,11.18
2023-04-07T12:42:31.024Z,11.40
2023-04-07T12:45:34.404Z,11.65
2023-04-07T12:48:37.895Z,12.38
2023-04-07T12:51:42.101Z,11.63
2023-04-07T12:54:48.930Z,10.73
2023-04-07T12:57:52.416Z,16.70
2023-04-07T13:00:56.812Z,9.65
2023-04-07T13:04:01.089Z,11.43
2023-04-07T13:07:04.432Z,10.57
2023-04-07T13:10:10.864Z,12.02
2023-04-07T13:13:14.143Z,9.77
2023-04-07T13:16:17.748Z,9.02
2023-04-07T13:19:21.183Z,15.02
2023-04-07T13:22:25.319Z,9.57
2023-04-07T13:25:30.495Z,9.73
2023-04-07T13:28:33.952Z,12.85
2023-04-07T13:31:37.333Z,13.68
2023-04-07T13:34:41.009Z,14.80
2023-04-07T13:37:44.446Z,10.90
2023-04-07T13:40:49.671Z,12.63
2023-04-07T13:43:53.028Z,11.82
2023-04-07T13:46:57.520Z,10.85
2023-04-07T13:50:01.205Z,10.55
2023-04-07T13:53:04.758Z,9.32
2023-04-07T13:56:10.313Z,9.35
2023-04-07T13:59:13.636Z,10.45
2023-04-07T14:02:17.249Z,9.00
2023-04-07T14:05:20.621Z,9.57
2023-04-07T14:08:24.071Z,9.13
2023-04-07T14:11:31.636Z,8.13
2023-04-07T14:14:37.460Z,9.40
2023-04-07T14:17:43.226Z,12.73
2023-04-07T14:20:46.992Z,11.65
2023-04-07T14:23:50.660Z,11.95
2023-04-07T14:26:55.893Z,11.25
2023-04-07T14:29:59.715Z,11.35
2023-04-07T14:33:05.070Z,10.55
2023-04-07T14:36:08.664Z,9.07
2023-04-07T14:39:12.502Z,11.13
2023-04-07T14:42:19.384Z,16.13
2023-04-07T14:45:25.398Z,17.02
2023-04-07T14:48:29.112Z,18.33
2023-04-07T14:51:32.376Z,20.65
2023-04-07T14:54:35.723Z,23.20
2023-04-07T14:57:40.345Z,22.80
2023-04-07T15:00:45.869Z,24.58
2023-04-07T15:03:52.811Z,18.45
2023-04-07T15:06:56.610Z,21.27
2023-04-07T15:10:00.896Z,18.75
2023-04-07T15:13:05.530Z,20.85
2023-04-07T15:16:10.582Z,21.33
2023-04-07T15:19:13.851Z,19.35
2023-04-07T15:22:17.202Z,18.58
2023-04-07T15:25:22.634Z,23.15
2023-04-07T15:28:27.382Z,23.98
2023-04-07T15:31:30.791Z,21.13
2023-04-07T15:34:34.253Z,24.98
2023-04-07T15:37:38.553Z,277.27
2023-04-07T15:40:42.772Z,257.70
2023-04-07T15:43:47.904Z,319.92
2023-04-07T15:46:51.406Z,181.55
2023-04-07T15:49:54.824Z,104.95
2023-04-07T15:52:58.227Z,354.23
2023-04-07T15:56:01.474Z,462.70
2023-04-07T15:59:06.239Z,120.22
2023-04-07T16:02:10.399Z,396.13
2023-04-07T16:05:15.837Z,211.68
2023-04-07T16:08:19.219Z,96.60
2023-04-07T16:11:22.671Z,216.05
2023-04-07T16:14:29.239Z,311.73
2023-04-07T16:17:32.914Z,202.73
2023-04-07T16:20:36.313Z,119.03
2023-04-07T16:23:39.655Z,104.70
2023-04-07T16:26:43.225Z,194.25
2023-04-07T16:29:48.543Z,366.48
2023-04-07T16:32:52.313Z,131.90
2023-04-07T16:35:55.696Z,58.08
2023-04-07T16:38:58.972Z,102.75
2023-04-07T16:42:02.665Z,230.32
2023-04-07T16:45:08.699Z,134.57
2023-04-07T16:48:12.192Z,101.50
2023-04-07T16:51:18.254Z,511.80
2023-04-07T16:54:21.817Z,810.85
2023-04-07T16:57:25.150Z,454.80
2023-04-07T17:00:29.835Z,100.25
2023-04-07T17:03:33.933Z,124.95
2023-04-07T17:06:37.237Z,80.93
2023-04-07T17:09:40.575Z,50.53
2023-04-07T17:12:44.294Z,80.15
2023-04-07T17:15:49.072Z,136.05
2023-04-07T17:18:52.806Z,625.35
2023-04-07T17:21:56.223Z,612.78
2023-04-07T17:24:59.596Z,321.50
2023-04-07T17:28:02.829Z,562.50
2023-04-07T17:31:07.753Z,59.28
2023-04-07T17:34:11.735Z,150.60
2023-04-07T17:37:15.058Z,70.82
2023-04-07T17:40:18.351Z,208.13
2023-04-07T17:43:21.863Z,176.57
2023-04-07T17:46:27.331Z,552.47
2023-04-07T17:49:30.784Z,208.43
2023-04-07T17:52:34.139Z,73.93
2023-04-07T17:55:37.496Z,71.05
2023-04-07T17:58:41.309Z,129.77
2023-04-07T18:01:46.096Z,106.72
2023-04-07T18:04:49.485Z,109.65
2023-04-07T18:07:54.895Z,148.93
2023-04-07T18:10:58.177Z,95.07
2023-04-07T18:14:02.082Z,57.60
2023-04-07T18:17:06.805Z,46.17
2023-04-07T18:20:11.571Z,70.88
2023-04-07T18:23:14.818Z,69.03
2023-04-07T18:26:18.031Z,66.40
2023-04-07T18:29:21.462Z,57.40
2023-04-07T18:32:26.277Z,76.43
2023-04-07T18:35:29.647Z,61.88
2023-04-07T18:38:32.957Z,165.82
2023-04-07T18:41:36.652Z,71.63
2023-04-07T18:44:40.164Z,27.15
2023-04-07T18:47:44.866Z,35.60
2023-04-07T18:50:52.308Z,35.63
2023-04-07T18:53:55.691Z,30.42
2023-04-07T18:56:58.976Z,26.52
2023-04-07T19:00:02.592Z,27.17
2023-04-07T19:03:07.557Z,27.30
2023-04-07T19:06:14.610Z,29.83
2023-04-07T19:09:17.858Z,29.08
2023-04-07T19:12:21.208Z,24.88
2023-04-07T19:15:24.504Z,33.75
2023-04-07T19:18:29.304Z,27.35
2023-04-07T19:21:33.004Z,34.85
2023-04-07T19:24:36.222Z,32.33
2023-04-07T19:27:39.543Z,36.90
2023-04-07T19:30:43.101Z,32.00
2023-04-07T19:33:48.931Z,34.58
2023-04-07T19:36:52.298Z,29.70
2023-04-07T19:40:02.777Z,29.83
2023-04-07T19:43:07.293Z,24.23
2023-04-07T19:46:10.812Z,24.45
2023-04-07T19:49:15.984Z,25.58
2023-04-07T19:52:19.232Z,24.70
2023-04-07T19:55:22.517Z,21.67
2023-04-07T19:58:26.426Z,23.45
2023-04-07T20:01:29.848Z,28.65
2023-04-07T20:04:34.804Z,42.35
2023-04-07T20:07:38.286Z,29.33
2023-04-07T20:10:41.766Z,27.70
2023-04-07T20:13:45.017Z,34.42
2023-04-07T20:16:48.387Z,25.33
2023-04-07T20:19:54.984Z,24.95
2023-04-07T20:22:58.157Z,41.40
2023-04-07T20:26:02.242Z,27.27
2023-04-07T20:29:05.898Z,24.58
2023-04-07T20:32:09.377Z,22.23
2023-04-07T20:35:14.335Z,22.00
2023-04-07T20:38:18.797Z,24.00
2023-04-07T20:41:23.663Z,24.67
2023-04-07T20:44:29.291Z,26.92
2023-04-07T20:47:35.827Z,27.90
2023-04-07T20:50:40.476Z,29.15
2023-04-07T20:53:43.697Z,32.00
2023-04-07T20:56:47.474Z,44.15
2023-04-07T20:59:50.739Z,198.15
2023-04-07T21:02:54.149Z,115.70
2023-04-07T21:05:59.003Z,71.20
2023-04-07T21:09:02.694Z,31.35
2023-04-07T21:12:05.900Z,26.75
2023-04-07T21:15:09.672Z,37.38
2023-04-07T21:18:13.000Z,32.03
2023-04-07T21:21:18.013Z,29.83
2023-04-07T21:24:22.806Z,30.10
2023-04-07T21:27:26.130Z,29.83
2023-04-07T21:30:29.624Z,27.85
2023-04-07T21:33:32.992Z,27.23
2023-04-07T21:36:37.692Z,30.33
2023-04-07T21:39:41.135Z,25.48
2023-04-07T21:42:44.402Z,28.15
2023-04-07T21:45:47.980Z,25.02
2023-04-07T21:48:51.302Z,24.52
2023-04-07T21:51:59.866Z,26.25
2023-04-07T21:55:04.018Z,26.45
2023-04-07T21:58:07.549Z,26.83
2023-04-07T22:01:10.978Z,27.02
2023-04-07T22:04:14.594Z,27.17
2023-04-07T22:07:19.357Z,28.42
2023-04-07T22:10:22.695Z,32.38
2023-04-07T22:13:25.992Z,33.45
2023-04-07T22:16:29.261Z,30.98
2023-04-07T22:19:32.480Z,33.50
2023-04-07T22:22:37.129Z,32.75
2023-04-07T22:25:40.407Z,31.92
2023-04-07T22:28:43.732Z,34.17
2023-04-07T22:31:46.997Z,32.05
2023-04-07T22:34:50.375Z,42.58
2023-04-07T22:37:55.619Z,33.67
2023-04-07T22:40:58.862Z,38.65
2023-04-07T22:44:02.175Z,36.33
2023-04-07T22:47:05.516Z,39.78
2023-04-07T22:50:09.433Z,34.90
2023-04-07T22:53:14.013Z,34.20
2023-04-07T22:56:17.250Z,41.20
2023-04-07T22:59:20.573Z,42.10
2023-04-07T23:02:24.267Z,39.45
2023-04-07T23:05:27.736Z,41.47
2023-04-07T23:08:32.443Z,38.83
2023-04-07T23:11:36.579Z,46.97
2023-04-07T23:14:39.752Z,47.60
2023-04-07T23:17:42.988Z,49.72
2023-04-07T23:20:52.158Z,52.25
2023-04-07T23:23:56.914Z,45.22
2023-04-07T23:27:00.816Z,59.25
2023-04-07T23:30:04.370Z,74.10
2023-04-07T23:33:07.966Z,74.93
2023-04-07T23:36:11.255Z,79.85
2023-04-07T23:39:15.887Z,90.53
2023-04-07T23:42:19.130Z,98.78
2023-04-07T23:45:22.988Z,86.05
2023-04-07T23:48:26.492Z,92.18
2023-04-07T23:51:30.384Z,93.32
2023-04-07T23:54:36.052Z,87.50
2023-04-07T23:57:39.260Z,81.97
